createdAt,value
2022-12-12T00:02:26.665Z,97026.00
2022-12-12T00:04:57.497Z,97004.17
2022-12-12T00:07:24.535Z,97005.19
2022-12-12T00:09:51.963Z,97008.50
2022-12-12T00:12:19.340Z,97015.74
2022-12-12T00:14:49.541Z,97021.34
2022-12-12T00:17:17.277Z,97026.23
2022-12-12T00:19:44.305Z,97025.38
2022-12-12T00:22:11.154Z,97033.00
2022-12-12T00:24:38.085Z,97043.23
2022-12-12T00:27:04.920Z,97046.70
2022-12-12T00:29:34.063Z,97050.70
2022-12-12T00:32:01.330Z,97051.65
2022-12-12T00:34:28.179Z,97039.80
2022-12-12T00:36:55.418Z,97039.98
2022-12-12T00:39:23.895Z,97038.73
2022-12-12T00:41:50.781Z,97045.23
2022-12-12T00:44:19.280Z,97051.14
2022-12-12T00:46:46.501Z,97052.14
2022-12-12T00:49:13.412Z,97056.02
2022-12-12T00:51:40.243Z,97055.33
2022-12-12T00:54:07.172Z,97058.34
2022-12-12T00:56:34.127Z,97059.13
2022-12-12T00:59:02.808Z,97061.88
2022-12-12T01:01:31.781Z,97058.91
2022-12-12T01:03:59.398Z,97063.85
2022-12-12T01:06:26.715Z,97068.81
2022-12-12T01:08:54.274Z,97075.02
2022-12-12T01:11:21.434Z,97074.67
2022-12-12T01:13:50.185Z,97079.75
2022-12-12T01:16:17.232Z,97073.34
2022-12-12T01:18:44.837Z,97067.86
2022-12-12T01:21:14.295Z,97073.08
2022-12-12T01:23:41.459Z,97074.10
2022-12-12T01:26:13.716Z,97070.59
2022-12-12T01:28:40.697Z,97075.86
2022-12-12T01:31:11.249Z,97080.11
2022-12-12T01:33:38.485Z,97085.05
2022-12-12T01:36:05.749Z,97090.12
2022-12-12T01:38:33.170Z,97087.02
2022-12-12T01:41:00.143Z,97084.09
2022-12-12T01:43:29.011Z,97078.77
2022-12-12T01:46:00.007Z,97078.42
2022-12-12T01:48:42.163Z,97082.73
2022-12-12T01:51:17.626Z,97079.85
2022-12-12T01:53:44.462Z,97076.52
2022-12-12T01:56:12.833Z,97078.49
2022-12-12T01:58:41.402Z,97077.09
2022-12-12T02:01:09.321Z,97073.23
2022-12-12T02:03:36.427Z,97072.79
2022-12-12T02:06:04.283Z,97077.54
2022-12-12T02:08:31.418Z,97084.63
2022-12-12T02:10:58.473Z,97083.09
2022-12-12T02:13:26.751Z,97089.59
2022-12-12T02:16:26.119Z,97087.56
2022-12-12T02:18:56.450Z,97089.98
2022-12-12T02:21:28.964Z,97086.34
2022-12-12T02:24:24.457Z,97089.52
2022-12-12T02:27:13.095Z,97093.59
2022-12-12T02:30:02.160Z,97096.98
2022-12-12T02:32:45.732Z,97103.46
2022-12-12T02:35:17.917Z,97098.88
2022-12-12T02:37:49.120Z,97097.69
2022-12-12T02:40:27.367Z,97098.88
2022-12-12T02:43:14.154Z,97095.60
2022-12-12T02:45:45.598Z,97103.98
2022-12-12T02:48:15.605Z,97102.90
2022-12-12T02:50:43.255Z,97104.02
2022-12-12T02:53:11.004Z,97101.86
2022-12-12T02:55:37.938Z,97106.75
2022-12-12T02:58:06.854Z,97109.21
2022-12-12T03:00:36.842Z,97112.12
2022-12-12T03:03:47.145Z,97112.52
2022-12-12T03:06:41.265Z,97115.55
2022-12-12T03:09:32.857Z,97122.01
2022-12-12T03:12:05.101Z,97124.68
2022-12-12T03:14:50.576Z,97129.46
2022-12-12T03:18:08.483Z,97122.30
2022-12-12T03:20:49.084Z,97126.92
2022-12-12T03:23:18.459Z,97125.80
2022-12-12T03:25:49.669Z,97130.04
2022-12-12T03:28:59.735Z,97135.16
2022-12-12T03:31:29.462Z,97144.88
2022-12-12T03:34:02.552Z,97147.42
2022-12-12T03:36:39.776Z,97148.99
2022-12-12T03:39:30.236Z,97141.52
2022-12-12T03:42:05.524Z,97142.60
2022-12-12T03:44:41.092Z,97135.02
2022-12-12T03:47:13.444Z,97133.52
2022-12-12T03:49:42.127Z,97131.24
2022-12-12T03:52:51.545Z,97131.14
2022-12-12T03:55:34.855Z,97135.50
2022-12-12T03:58:30.183Z,97139.09
2022-12-12T04:00:57.700Z,97144.33
2022-12-12T04:03:26.657Z,97142.05
2022-12-12T04:06:23.404Z,97143.55
2022-12-12T07:04:56.547Z,97219.33
2022-12-12T07:07:23.459Z,97218.43
2022-12-12T07:09:50.335Z,97218.41
2022-12-12T07:12:17.221Z,97219.79
2022-12-12T07:14:44.079Z,97220.31
2022-12-12T07:17:11.020Z,97219.55
2022-12-12T07:19:37.851Z,97224.45
2022-12-12T07:22:09.647Z,97225.48
2022-12-12T07:24:37.321Z,97233.31
2022-12-12T07:27:04.317Z,97237.75
2022-12-12T07:29:31.387Z,97240.43
2022-12-12T07:31:58.270Z,97239.80
2022-12-12T07:34:25.679Z,97239.63
2022-12-12T07:36:56.551Z,97237.78
2022-12-12T07:39:30.533Z,97240.91
2022-12-12T07:41:57.973Z,97237.01
2022-12-12T07:44:26.091Z,97236.59
2022-12-12T07:46:53.020Z,97242.14
2022-12-12T07:49:20.154Z,97239.41
2022-12-12T07:51:49.417Z,97248.69
2022-12-12T07:54:16.851Z,97247.50
2022-12-12T07:56:44.295Z,97245.01
2022-12-12T07:59:12.004Z,97239.17
2022-12-12T08:01:39.204Z,97241.83
2022-12-12T08:04:06.241Z,97242.54
2022-12-12T08:06:33.278Z,97245.31
2022-12-12T08:09:00.309Z,97245.55
2022-12-12T08:11:27.308Z,97238.74
2022-12-12T08:13:54.542Z,97237.08
2022-12-12T08:16:30.987Z,97236.88
2022-12-12T08:18:58.521Z,97241.00
2022-12-12T08:21:26.694Z,97244.38
2022-12-12T08:23:57.875Z,97249.36
2022-12-12T08:26:25.996Z,97250.67
2022-12-12T08:28:52.989Z,97251.00
2022-12-12T08:31:21.324Z,97243.46
2022-12-12T08:33:50.649Z,97239.59
2022-12-12T08:36:25.920Z,97240.83
2022-12-12T08:38:52.810Z,97250.74
2022-12-12T08:41:20.359Z,97250.27
2022-12-12T08:43:47.418Z,97246.11
2022-12-12T08:46:17.932Z,97247.67
2022-12-12T08:48:46.202Z,97249.03
2022-12-12T08:51:13.768Z,97246.23
2022-12-12T08:53:40.648Z,97251.88
2022-12-12T08:56:07.783Z,97262.16
2022-12-12T08:58:35.754Z,97263.92
2022-12-12T09:01:02.973Z,97273.37
2022-12-12T09:03:30.096Z,97271.64
2022-12-12T09:05:56.939Z,97268.66
2022-12-12T09:08:24.119Z,97261.75
2022-12-12T09:10:51.188Z,97260.37
2022-12-12T09:13:18.505Z,97258.48
2022-12-12T09:15:45.369Z,97255.70
2022-12-12T09:18:12.412Z,97249.52
2022-12-12T09:20:39.299Z,97246.21
2022-12-12T09:23:06.193Z,97250.48
2022-12-12T09:25:33.710Z,97253.61
2022-12-12T09:28:00.504Z,97258.05
2022-12-12T09:30:27.643Z,97261.02
2022-12-12T09:32:55.612Z,97262.68
2022-12-12T09:35:22.459Z,97260.95
2022-12-12T09:37:49.410Z,97260.09
2022-12-12T09:40:19.571Z,97254.29
2022-12-12T09:42:50.485Z,97258.40
2022-12-12T09:45:17.491Z,97260.51
2022-12-12T09:47:49.752Z,97257.08
2022-12-12T09:50:22.788Z,97255.08
2022-12-12T09:52:49.846Z,97260.29
2022-12-12T09:55:41.905Z,97259.77
2022-12-12T09:58:55.240Z,97257.16
2022-12-12T10:01:36.938Z,97262.95
2022-12-12T12:52:31.212Z,97291.98
2022-12-12T12:54:58.214Z,97293.13
2022-12-12T12:57:39.194Z,97289.50
2022-12-12T13:00:17.569Z,97283.72
2022-12-12T13:02:47.702Z,97284.07
2022-12-12T13:05:20.533Z,97285.70
2022-12-12T13:08:05.909Z,97290.57
2022-12-12T13:10:33.096Z,97292.77
2022-12-12T13:13:14.711Z,97297.33
2022-12-12T13:15:47.685Z,97295.27
2022-12-12T13:18:16.186Z,97297.17
2022-12-12T13:20:59.072Z,97309.88
2022-12-12T13:23:48.119Z,97312.27
2022-12-12T13:26:35.210Z,97320.41
2022-12-12T13:29:23.514Z,97317.84
2022-12-12T13:31:59.722Z,97316.61
2022-12-12T13:34:26.953Z,97320.92
2022-12-12T13:36:54.112Z,97327.02
2022-12-12T13:39:32.288Z,97325.13
2022-12-12T13:42:00.090Z,97325.98
2022-12-12T13:44:39.323Z,97330.59
2022-12-12T13:47:29.933Z,97331.92
2022-12-12T13:50:18.974Z,97330.70
2022-12-12T13:55:18.525Z,97337.05
2022-12-12T13:58:05.991Z,97337.91
2022-12-12T14:02:45.488Z,97344.48
2022-12-12T14:05:23.183Z,97349.56
2022-12-12T14:07:52.382Z,97350.33
2022-12-12T14:10:28.371Z,97356.66
2022-12-12T14:15:18.594Z,97348.85
2022-12-12T14:17:52.186Z,97347.88
2022-12-12T14:20:28.155Z,97354.29
2022-12-12T14:22:55.332Z,97353.84
2022-12-12T14:25:37.536Z,97352.09
2022-12-12T14:31:16.393Z,97357.48
2022-12-12T14:34:13.279Z,97357.42
2022-12-12T14:37:19.037Z,97357.24
2022-12-12T14:39:50.435Z,97360.73
2022-12-12T14:43:22.238Z,97366.14
2022-12-12T14:45:37.285Z,97362.49
2022-12-12T14:48:34.339Z,97365.41
2022-12-12T14:51:30.016Z,97375.98
2022-12-12T15:29:21.159Z,97400.12
2022-12-12T15:31:48.422Z,97394.33
2022-12-12T15:34:38.982Z,97393.61
2022-12-12T15:37:29.999Z,97393.88
2022-12-12T15:40:00.944Z,97398.44
2022-12-12T15:42:27.999Z,97402.66
2022-12-12T15:44:55.193Z,97402.27
2022-12-12T15:47:22.146Z,97400.86
2022-12-12T15:49:51.780Z,97402.27
2022-12-12T15:52:28.944Z,97403.20
2022-12-12T15:54:56.917Z,97401.96
2022-12-12T15:57:25.634Z,97407.89
2022-12-12T15:59:57.637Z,97408.80
2022-12-12T16:02:26.157Z,97416.98
2022-12-12T16:05:02.809Z,97415.42
2022-12-12T16:07:30.535Z,97421.35
2022-12-12T16:10:02.619Z,97418.05
2022-12-12T16:13:01.966Z,97420.63
2022-12-12T16:15:36.744Z,97418.17
2022-12-12T16:18:15.644Z,97416.53
2022-12-12T16:20:53.841Z,97415.41
2022-12-12T16:23:39.877Z,97414.73
2022-12-12T16:26:08.774Z,97415.17
2022-12-12T16:28:35.836Z,97417.75
2022-12-12T16:31:04.091Z,97420.33
2022-12-12T16:33:38.226Z,97416.70
2022-12-12T16:36:10.390Z,97418.70
2022-12-12T16:38:37.546Z,97416.83
2022-12-12T16:41:13.962Z,97416.09
2022-12-12T16:43:42.130Z,97420.73
2022-12-12T16:46:16.952Z,97417.13
2022-12-12T16:48:44.042Z,97419.30
2022-12-12T16:51:24.457Z,97420.89
2022-12-12T16:53:51.373Z,97427.20
2022-12-12T16:56:18.385Z,97432.83
2022-12-12T16:58:47.062Z,97433.34
2022-12-12T17:01:17.156Z,97436.98
2022-12-12T17:03:44.363Z,97439.32
2022-12-12T17:06:11.475Z,97439.95
2022-12-12T17:08:41.572Z,97439.08
2022-12-12T17:11:11.138Z,97439.96
2022-12-12T17:13:41.692Z,97441.33
2022-12-12T17:16:08.886Z,97444.08
2022-12-12T17:18:36.480Z,97439.52
2022-12-12T17:21:06.361Z,97446.65
2022-12-12T17:23:33.830Z,97451.90
2022-12-12T17:26:04.316Z,97452.71
2022-12-12T17:28:33.067Z,97453.00
2022-12-12T17:31:00.330Z,97451.58
2022-12-12T17:33:27.343Z,97454.53
2022-12-12T17:36:01.628Z,97454.24
2022-12-12T17:38:30.636Z,97456.10
2022-12-12T17:40:58.159Z,97458.24
2022-12-12T17:43:25.280Z,97462.15
2022-12-12T17:46:03.530Z,97466.55
2022-12-12T17:48:31.404Z,97469.21
2022-12-12T17:51:03.314Z,97474.64
2022-12-12T17:53:36.734Z,97475.54
2022-12-12T17:56:16.026Z,97473.80
2022-12-12T17:58:44.242Z,97472.61
2022-12-12T18:01:35.296Z,97473.40
2022-12-12T18:04:02.748Z,97476.09
2022-12-12T18:06:31.651Z,97476.42
2022-12-12T18:08:58.873Z,97486.58
2022-12-12T18:11:27.552Z,97490.14
2022-12-12T18:13:55.382Z,97492.58
2022-12-12T18:16:23.758Z,97497.60
2022-12-12T18:18:51.596Z,97499.43
2022-12-12T18:21:51.610Z,97497.93
2022-12-12T18:24:10.730Z,97502.11
2022-12-12T18:26:37.804Z,97503.94
2022-12-12T18:29:06.062Z,97502.39
2022-12-12T18:31:33.491Z,97505.86
2022-12-12T18:34:00.383Z,97508.84
2022-12-12T18:36:28.187Z,97507.32
2022-12-12T18:38:55.861Z,97506.70
2022-12-12T18:41:22.927Z,97503.49
2022-12-12T18:43:49.810Z,97506.13
2022-12-12T18:46:18.710Z,97502.75
2022-12-12T18:48:46.722Z,97504.03
2022-12-12T18:51:17.732Z,97506.59
2022-12-12T18:53:44.775Z,97509.05
2022-12-12T18:56:14.523Z,97510.64
2022-12-12T21:54:53.649Z,97653.77
2022-12-12T21:57:24.633Z,97650.02
2022-12-12T21:59:51.973Z,97644.44
2022-12-12T22:02:18.829Z,97638.35
2022-12-12T22:04:45.749Z,97639.83
2022-12-12T22:07:12.947Z,97631.25
2022-12-12T22:09:40.585Z,97631.30
2022-12-12T22:12:08.331Z,97629.88
2022-12-12T22:14:35.437Z,97628.23
2022-12-12T22:17:03.568Z,97630.84
2022-12-12T22:19:30.635Z,97628.79
2022-12-12T22:21:57.477Z,97633.14
2022-12-12T22:24:24.296Z,97638.38
2022-12-12T22:26:51.216Z,97641.67
2022-12-12T22:29:18.984Z,97640.48
2022-12-12T22:31:46.201Z,97640.88
2022-12-12T22:34:18.607Z,97639.27
2022-12-12T22:36:45.752Z,97641.24
2022-12-12T22:39:17.924Z,97640.73
2022-12-12T22:41:45.151Z,97646.43
2022-12-12T22:44:16.313Z,97642.50
2022-12-12T22:46:44.838Z,97642.55
2022-12-12T22:49:14.131Z,97641.84
2022-12-12T22:51:41.588Z,97642.50
2022-12-12T22:54:09.102Z,97645.77
2022-12-12T22:56:36.856Z,97647.54
2022-12-12T22:59:04.360Z,97647.27
2022-12-12T23:01:31.856Z,97648.20
2022-12-12T23:03:58.924Z,97652.30
2022-12-12T23:06:29.389Z,97650.30
2022-12-12T23:08:58.201Z,97649.23
2022-12-12T23:11:26.199Z,97648.00
2022-12-12T23:14:07.393Z,97649.17
2022-12-12T23:16:35.861Z,97650.46
2022-12-12T23:19:04.316Z,97653.42
2022-12-12T23:21:31.371Z,97651.05
2022-12-12T23:23:58.326Z,97647.83
2022-12-12T23:26:27.095Z,97646.10
2022-12-12T23:28:54.113Z,97650.16
2022-12-12T23:31:22.881Z,97649.15
2022-12-12T23:33:54.518Z,97648.48
2022-12-12T23:36:21.793Z,97651.04
2022-12-12T23:38:49.044Z,97653.05
2022-12-12T23:41:16.188Z,97650.33
2022-12-12T23:43:43.186Z,97652.21
2022-12-12T23:46:31.905Z,97652.56
2022-12-12T23:49:21.878Z,97648.98
2022-12-12T23:51:51.586Z,97645.52
2022-12-12T23:54:25.352Z,97643.17
2022-12-12T23:56:52.308Z,97645.70
2022-12-12T23:59:19.815Z,97647.35
